sensor_id;sensor_type;location;lat;lon;timestamp;pressure;altitude;pressure_sealevel;temperature;humidity
29903;BME280;30288;50.514;9.678;2023-03-26T00:00:27;97935.28;;;6.93;100.00
29903;BME280;30288;50.514;9.678;2023-03-26T00:02:32;97939.16;;;7.03;100.00
29903;BME280;30288;50.514;9.678;2023-03-26T00:04:40;97944.97;;;7.06;100.00
29903;BME280;30288;50.514;9.678;2023-03-26T00:06:48;97940.69;;;7.09;100.00
29903;BME280;30288;50.514;9.678;2023-03-26T00:08:55;97956.63;;;7.07;100.00
29903;BME280;30288;50.514;9.678;2023-03-26T00:11:02;97949.88;;;7.09;100.00
29903;BME280;30288;50.514;9.678;2023-03-26T00:13:11;97953.44;;;7.01;100.00
29903;BME280;30288;50.514;9.678;2023-03-26T00:15:16;97959.19;;;7.03;100.00
29903;BME280;30288;50.514;9.678;2023-03-26T00:17:21;97950.91;;;7.03;100.00
29903;BME280;30288;50.514;9.678;2023-03-26T00:19:26;97948.41;;;7.01;100.00
29903;BME280;30288;50.514;9.678;2023-03-26T00:21:32;97950.56;;;7.15;100.00
29903;BME280;30288;50.514;9.678;2023-03-26T00:23:37;97953.09;;;7.14;100.00
29903;BME280;30288;50.514;9.678;2023-03-26T00:25:42;97948.16;;;7.12;100.00
29903;BME280;30288;50.514;9.678;2023-03-26T00:27:52;97949.72;;;7.15;100.00
29903;BME280;30288;50.514;9.678;2023-03-26T00:30:01;97946.22;;;7.22;100.00
29903;BME280;30288;50.514;9.678;2023-03-26T00:32:07;97947.81;;;7.23;100.00
29903;BME280;30288;50.514;9.678;2023-03-26T00:34:13;97952.78;;;7.26;100.00
29903;BME280;30288;50.514;9.678;2023-03-26T00:36:22;97949.47;;;7.24;100.00
29903;BME280;30288;50.514;9.678;2023-03-26T00:38:28;97951.22;;;7.22;100.00
29903;BME280;30288;50.514;9.678;2023-03-26T00:40:34;97954.59;;;7.19;100.00
29903;BME280;30288;50.514;9.678;2023-03-26T00:42:40;97961.25;;;7.22;100.00
29903;BME280;30288;50.514;9.678;2023-03-26T00:44:45;97961.25;;;7.22;100.00
29903;BME280;30288;50.514;9.678;2023-03-26T00:46:55;97953.78;;;7.19;100.00
29903;BME280;30288;50.514;9.678;2023-03-26T00:49:00;97956.22;;;7.22;100.00
29903;BME280;30288;50.514;9.678;2023-03-26T00:51:06;97955.34;;;7.23;100.00
29903;BME280;30288;50.514;9.678;2023-03-26T00:53:14;97946.25;;;7.20;100.00
29903;BME280;30288;50.514;9.678;2023-03-26T00:55:21;97941.09;;;7.25;100.00
29903;BME280;30288;50.514;9.678;2023-03-26T00:57:27;97942.66;;;7.29;100.00
29903;BME280;30288;50.514;9.678;2023-03-26T00:59:37;97941.00;;;7.28;100.00
29903;BME280;30288;50.514;9.678;2023-03-26T01:01:43;97944.22;;;7.33;100.00
29903;BME280;30288;50.514;9.678;2023-03-26T01:03:52;97942.56;;;7.32;100.00
29903;BME280;30288;50.514;9.678;2023-03-26T01:06:13;97948.38;;;7.34;100.00
29903;BME280;30288;50.514;9.678;2023-03-26T01:08:27;97945.13;;;7.30;100.00
29903;BME280;30288;50.514;9.678;2023-03-26T01:10:34;97941.09;;;7.25;100.00
29903;BME280;30288;50.514;9.678;2023-03-26T01:12:40;97944.31;;;7.30;100.00
29903;BME280;30288;50.514;9.678;2023-03-26T01:14:46;97935.94;;;7.31;100.00
29903;BME280;30288;50.514;9.678;2023-03-26T01:16:56;97940.84;;;7.34;100.00
29903;BME280;30288;50.514;9.678;2023-03-26T01:19:10;97940.84;;;7.34;100.00
29903;BME280;30288;50.514;9.678;2023-03-26T01:21:21;97944.31;;;7.30;100.00
29903;BME280;30288;50.514;9.678;2023-03-26T01:23:41;97942.63;;;7.30;100.00
29903;BME280;30288;50.514;9.678;2023-03-26T01:25:58;97944.91;;;7.38;100.00
29903;BME280;30288;50.514;9.678;2023-03-26T01:28:06;97949.97;;;7.36;100.00
29903;BME280;30288;50.514;9.678;2023-03-26T01:30:20;97940.75;;;7.37;100.00
29903;BME280;30288;50.514;9.678;2023-03-26T01:32:43;97940.72;;;7.38;100.00
29903;BME280;30288;50.514;9.678;2023-03-26T01:35:02;97934.13;;;7.36;100.00
29903;BME280;30288;50.514;9.678;2023-03-26T01:37:15;97939.22;;;7.33;100.00
29903;BME280;30288;50.514;9.678;2023-03-26T01:39:30;97940.75;;;7.37;100.00
29903;BME280;30288;50.514;9.678;2023-03-26T01:41:45;97934.19;;;7.33;100.00
29903;BME280;30288;50.514;9.678;2023-03-26T01:43:56;97936.91;;;7.27;100.00
29903;BME280;30288;50.514;9.678;2023-03-26T01:46:08;97926.19;;;7.22;100.00
29903;BME280;30288;50.514;9.678;2023-03-26T01:48:15;97925.47;;;7.17;100.00
29903;BME280;30288;50.514;9.678;2023-03-26T01:50:21;97915.66;;;7.09;100.00
29903;BME280;30288;50.514;9.678;2023-03-26T01:52:26;97909.09;;;7.05;100.00
29903;BME280;30288;50.514;9.678;2023-03-26T01:54:32;97906.75;;;6.99;100.00
29903;BME280;30288;50.514;9.678;2023-03-26T01:56:55;97905.31;;;6.90;100.00
29903;BME280;30288;50.514;9.678;2023-03-26T01:59:21;97910.31;;;6.90;100.00
29903;BME280;30288;50.514;9.678;2023-03-26T02:01:37;97898.75;;;6.86;100.00
29903;BME280;30288;50.514;9.678;2023-03-26T02:03:52;97898.84;;;6.83;100.00
29903;BME280;30288;50.514;9.678;2023-03-26T02:06:05;97905.72;;;6.75;100.00
29903;BME280;30288;50.514;9.678;2023-03-26T02:08:22;97899.34;;;6.65;100.00
29903;BME280;30288;50.514;9.678;2023-03-26T02:10:35;97906.41;;;6.48;100.00
29903;BME280;30288;50.514;9.678;2023-03-26T02:12:45;97903.22;;;6.43;100.00
29903;BME280;30288;50.514;9.678;2023-03-26T02:14:51;97895.16;;;6.32;100.00
29903;BME280;30288;50.514;9.678;2023-03-26T02:16:58;97891.88;;;6.30;100.00
29903;BME280;30288;50.514;9.678;2023-03-26T02:19:03;97888.53;;;6.31;100.00
29903;BME280;30288;50.514;9.678;2023-03-26T02:21:21;97883.34;;;6.37;100.00
29903;BME280;30288;50.514;9.678;2023-03-26T02:23:27;97878.34;;;6.37;100.00
29903;BME280;30288;50.514;9.678;2023-03-26T02:25:37;97866.34;;;6.51;100.00
29903;BME280;30288;50.514;9.678;2023-03-26T02:27:49;97857.56;;;6.67;100.00
29903;BME280;30288;50.514;9.678;2023-03-26T02:29:55;97857.56;;;6.67;100.00
29903;BME280;30288;50.514;9.678;2023-03-26T02:32:01;97860.88;;;6.68;100.00
29903;BME280;30288;50.514;9.678;2023-03-26T02:34:06;97870.22;;;6.61;100.00
29903;BME280;30288;50.514;9.678;2023-03-26T02:36:14;97879.63;;;6.53;100.00
29903;BME280;30288;50.514;9.678;2023-03-26T02:38:23;97877.38;;;6.42;100.00
29903;BME280;30288;50.514;9.678;2023-03-26T02:40:29;97871.88;;;6.30;100.00
29903;BME280;30288;50.514;9.678;2023-03-26T02:42:34;97872.56;;;6.36;100.00
29903;BME280;30288;50.514;9.678;2023-03-26T02:44:42;97875.00;;;6.38;100.00
29903;BME280;30288;50.514;9.678;2023-03-26T02:46:53;97869.28;;;6.33;100.00
29903;BME280;30288;50.514;9.678;2023-03-26T02:49:17;97861.91;;;6.28;100.00
29903;BME280;30288;50.514;9.678;2023-03-26T02:51:22;97872.59;;;6.33;100.00
29903;BME280;30288;50.514;9.678;2023-03-26T02:53:37;97870.16;;;6.32;100.00
29903;BME280;30288;50.514;9.678;2023-03-26T02:56:03;97861.72;;;6.36;100.00
29903;BME280;30288;50.514;9.678;2023-03-26T02:58:17;97869.28;;;6.33;100.00
29903;BME280;30288;50.514;9.678;2023-03-26T03:00:25;97861.91;;;6.28;100.00
29903;BME280;30288;50.514;9.678;2023-03-26T03:02:47;97861.13;;;6.26;100.00
29903;BME280;30288;50.514;9.678;2023-03-26T03:05:07;97853.75;;;6.22;100.00
29903;BME280;30288;50.514;9.678;2023-03-26T03:07:13;97852.19;;;6.18;100.00
29903;BME280;30288;50.514;9.678;2023-03-26T03:09:18;97846.50;;;6.11;100.00
29903;BME280;30288;50.514;9.678;2023-03-26T03:11:47;97841.00;;;5.98;100.00
29903;BME280;30288;50.514;9.678;2023-03-26T03:13:53;97837.88;;;5.89;100.00
29903;BME280;30288;50.514;9.678;2023-03-26T03:16:04;97834.66;;;5.82;100.00
29903;BME280;30288;50.514;9.678;2023-03-26T03:18:09;97837.19;;;5.81;100.00
29903;BME280;30288;50.514;9.678;2023-03-26T03:20:15;97828.16;;;5.75;100.00
29903;BME280;30288;50.514;9.678;2023-03-26T03:22:21;97821.53;;;5.74;100.00
29903;BME280;30288;50.514;9.678;2023-03-26T03:24:26;97816.69;;;5.68;100.00
29903;BME280;30288;50.514;9.678;2023-03-26T03:26:31;97818.59;;;5.57;100.00
29903;BME280;30288;50.514;9.678;2023-03-26T03:28:50;97820.53;;;5.46;100.00
29903;BME280;30288;50.514;9.678;2023-03-26T03:30:55;97822.44;;;5.35;100.00
29903;BME280;30288;50.514;9.678;2023-03-26T03:33:08;97816.69;;;5.31;100.00
29903;BME280;30288;50.514;9.678;2023-03-26T03:35:15;97820.91;;;5.27;100.00
29903;BME280;30288;50.514;9.678;2023-03-26T03:37:24;97817.44;;;5.35;100.00
29903;BME280;30288;50.514;9.678;2023-03-26T03:39:32;97817.38;;;5.38;100.00
29903;BME280;30288;50.514;9.678;2023-03-26T03:41:38;97824.13;;;5.33;100.00
29903;BME280;30288;50.514;9.678;2023-03-26T03:43:47;97820.88;;;5.31;100.00
29903;BME280;30288;50.514;9.678;2023-03-26T03:45:59;97830.72;;;5.37;100.00
29903;BME280;30288;50.514;9.678;2023-03-26T03:48:12;97824.03;;;5.37;100.00
29903;BME280;30288;50.514;9.678;2023-03-26T03:50:21;97822.34;;;5.38;100.00
29903;BME280;30288;50.514;9.678;2023-03-26T03:52:41;97824.13;;;5.33;100.00
29903;BME280;30288;50.514;9.678;2023-03-26T03:54:46;97812.38;;;5.38;100.00
29903;BME280;30288;50.514;9.678;2023-03-26T03:56:57;97820.75;;;5.37;100.00
29903;BME280;30288;50.514;9.678;2023-03-26T03:59:30;97819.94;;;5.35;100.00
29903;BME280;30288;50.514;9.678;2023-03-26T04:01:38;97819.91;;;5.36;100.00
29903;BME280;30288;50.514;9.678;2023-03-26T04:04:01;97814.09;;;5.36;100.00
29903;BME280;30288;50.514;9.678;2023-03-26T04:06:22;97820.06;;;5.28;100.00
29903;BME280;30288;50.514;9.678;2023-03-26T04:08:28;97809.31;;;5.26;100.00
29903;BME280;30288;50.514;9.678;2023-03-26T04:10:33;97811.06;;;5.21;100.00
29903;BME280;30288;50.514;9.678;2023-03-26T04:13:04;97804.56;;;5.14;100.00
29903;BME280;30288;50.514;9.678;2023-03-26T04:15:42;97805.13;;;5.27;100.00
29903;BME280;30288;50.514;9.678;2023-03-26T04:17:48;97801.28;;;5.12;100.00
29903;BME280;30288;50.514;9.678;2023-03-26T04:19:57;97796.53;;;5.00;100.00
29903;BME280;30288;50.514;9.678;2023-03-26T04:22:08;97790.06;;;4.93;100.00
29903;BME280;30288;50.514;9.678;2023-03-26T04:24:24;97791.81;;;4.88;100.00
29903;BME280;30288;50.514;9.678;2023-03-26T04:27:00;97786.13;;;4.81;100.00
29903;BME280;30288;50.514;9.678;2023-03-26T04:29:12;97788.03;;;4.70;100.00
29903;BME280;30288;50.514;9.678;2023-03-26T04:31:24;97783.91;;;4.68;100.00
29903;BME280;30288;50.514;9.678;2023-03-26T04:33:34;97774.94;;;4.59;100.00
29903;BME280;30288;50.514;9.678;2023-03-26T04:35:42;97785.09;;;4.50;100.00
29903;BME280;30288;50.514;9.678;2023-03-26T04:37:51;97782.56;;;4.52;100.00
29903;BME280;30288;50.514;9.678;2023-03-26T04:40:05;97778.38;;;4.54;100.00
29903;BME280;30288;50.514;9.678;2023-03-26T04:42:20;97779.97;;;4.56;100.00
29903;BME280;30288;50.514;9.678;2023-03-26T04:44:37;97779.03;;;4.62;100.00
29903;BME280;30288;50.514;9.678;2023-03-26T04:46:47;97775.13;;;4.50;100.00
29903;BME280;30288;50.514;9.678;2023-03-26T04:49:04;97775.16;;;4.49;100.00
29903;BME280;30288;50.514;9.678;2023-03-26T04:51:12;97774.22;;;4.53;100.00
29903;BME280;30288;50.514;9.678;2023-03-26T04:53:21;97760.81;;;4.60;100.00
29903;BME280;30288;50.514;9.678;2023-03-26T04:56:01;97754.06;;;4.65;100.00
29903;BME280;30288;50.514;9.678;2023-03-26T04:58:30;97753.78;;;4.77;100.00
29903;BME280;30288;50.514;9.678;2023-03-26T05:00:36;97748.06;;;4.73;100.00
29903;BME280;30288;50.514;9.678;2023-03-26T05:02:42;97747.97;;;4.76;100.00
29903;BME280;30288;50.514;9.678;2023-03-26T05:04:52;97742.59;;;4.95;100.00
29903;BME280;30288;50.514;9.678;2023-03-26T05:07:04;97741.59;;;5.03;100.00
29903;BME280;30288;50.514;9.678;2023-03-26T05:09:17;97739.84;;;5.08;100.00
29903;BME280;30288;50.514;9.678;2023-03-26T05:11:45;97737.06;;;5.19;100.00
29903;BME280;30288;50.514;9.678;2023-03-26T05:13:52;97731.13;;;5.24;100.00
29903;BME280;30288;50.514;9.678;2023-03-26T05:15:58;97734.31;;;5.31;100.00
29903;BME280;30288;50.514;9.678;2023-03-26T05:18:13;97733.34;;;5.37;100.00
29903;BME280;30288;50.514;9.678;2023-03-26T05:20:25;97725.66;;;5.46;100.00
29903;BME280;30288;50.514;9.678;2023-03-26T05:22:34;97727.13;;;5.53;100.00
29903;BME280;30288;50.514;9.678;2023-03-26T05:24:49;97719.47;;;5.60;100.00
29903;BME280;30288;50.514;9.678;2023-03-26T05:26:55;97715.13;;;5.67;100.00
29903;BME280;30288;50.514;9.678;2023-03-26T05:29:00;97710.88;;;5.70;100.00
29903;BME280;30288;50.514;9.678;2023-03-26T05:31:09;97709.91;;;5.76;100.00
29903;BME280;30288;50.514;9.678;2023-03-26T05:33:21;97709.75;;;5.82;100.00
29903;BME280;30288;50.514;9.678;2023-03-26T05:35:37;97711.25;;;5.89;100.00
29903;BME280;30288;50.514;9.678;2023-03-26T05:37:46;97699.47;;;5.94;100.00
29903;BME280;30288;50.514;9.678;2023-03-26T05:39:56;97702.66;;;5.99;100.00
29903;BME280;30288;50.514;9.678;2023-03-26T05:42:22;97702.50;;;6.05;100.00
29903;BME280;30288;50.514;9.678;2023-03-26T05:44:45;97690.72;;;6.10;100.00
29903;BME280;30288;50.514;9.678;2023-03-26T05:46:57;97688.00;;;6.18;100.00
29903;BME280;30288;50.514;9.678;2023-03-26T05:49:03;97678.75;;;6.22;100.00
29903;BME280;30288;50.514;9.678;2023-03-26T05:51:10;97675.34;;;6.24;100.00
29903;BME280;30288;50.514;9.678;2023-03-26T05:53:26;97666.75;;;6.33;100.00
29903;BME280;30288;50.514;9.678;2023-03-26T05:55:51;97674.94;;;6.38;100.00
29903;BME280;30288;50.514;9.678;2023-03-26T05:58:19;97668.13;;;6.43;100.00
29903;BME280;30288;50.514;9.678;2023-03-26T06:00:43;97668.09;;;6.44;100.00
29903;BME280;30288;50.514;9.678;2023-03-26T06:03:00;97665.47;;;6.49;100.00
29903;BME280;30288;50.514;9.678;2023-03-26T06:05:26;97654.50;;;6.53;100.00
29903;BME280;30288;50.514;9.678;2023-03-26T06:07:49;97655.19;;;6.58;100.00
29903;BME280;30288;50.514;9.678;2023-03-26T06:09:57;97650.06;;;6.63;100.00
29903;BME280;30288;50.514;9.678;2023-03-26T06:12:05;97647.59;;;6.61;100.00
29903;BME280;30288;50.514;9.678;2023-03-26T06:14:11;97649.16;;;6.65;100.00
29903;BME280;30288;50.514;9.678;2023-03-26T06:16:36;97640.75;;;6.66;100.00
29903;BME280;30288;50.514;9.678;2023-03-26T06:18:54;97637.19;;;6.75;100.00
29903;BME280;30288;50.514;9.678;2023-03-26T06:21:09;97632.13;;;6.76;100.00
29903;BME280;30288;50.514;9.678;2023-03-26T06:23:19;97640.31;;;6.81;100.00
29903;BME280;30288;50.514;9.678;2023-03-26T06:25:43;97626.13;;;6.82;100.00
29903;BME280;30288;50.514;9.678;2023-03-26T06:28:04;97629.31;;;6.87;100.00
29903;BME280;30288;50.514;9.678;2023-03-26T06:30:23;97621.47;;;6.97;100.00
29903;BME280;30288;50.514;9.678;2023-03-26T06:32:39;97619.63;;;7.02;100.00
29903;BME280;30288;50.514;9.678;2023-03-26T06:34:49;97622.72;;;7.11;100.00
29903;BME280;30288;50.514;9.678;2023-03-26T06:36:55;97619.41;;;7.09;100.00
29903;BME280;30288;50.514;9.678;2023-03-26T06:39:00;97615.09;;;7.14;100.00
29903;BME280;30288;50.514;9.678;2023-03-26T06:41:12;97612.59;;;7.14;100.00
29903;BME280;30288;50.514;9.678;2023-03-26T06:43:32;97612.44;;;7.18;100.00
29903;BME280;30288;50.514;9.678;2023-03-26T06:46:10;97618.19;;;7.22;100.00
29903;BME280;30288;50.514;9.678;2023-03-26T06:48:34;97602.19;;;7.26;100.00
29903;BME280;30288;50.514;9.678;2023-03-26T06:50:58;97602.06;;;7.29;100.00
29903;BME280;30288;50.514;9.678;2023-03-26T06:53:26;97604.19;;;7.41;100.00
29903;BME280;30288;50.514;9.678;2023-03-26T06:55:52;97603.00;;;7.51;100.00
29903;BME280;30288;50.514;9.678;2023-03-26T06:58:25;97603.44;;;7.62;100.00
29903;BME280;30288;50.514;9.678;2023-03-26T07:00:52;97607.16;;;7.75;100.00
29903;BME280;30288;50.514;9.678;2023-03-26T07:03:16;97599.56;;;7.78;100.00
29903;BME280;30288;50.514;9.678;2023-03-26T07:05:40;97596.47;;;7.93;100.00
29903;BME280;30288;50.514;9.678;2023-03-26T07:08:04;97598.25;;;7.91;100.00
29903;BME280;30288;50.514;9.678;2023-03-26T07:10:28;97598.13;;;7.95;100.00
29903;BME280;30288;50.514;9.678;2023-03-26T07:12:47;97596.47;;;7.93;100.00
29903;BME280;30288;50.514;9.678;2023-03-26T07:15:14;97599.66;;;7.99;100.00
29903;BME280;30288;50.514;9.678;2023-03-26T07:17:39;97596.19;;;8.03;100.00
29903;BME280;30288;50.514;9.678;2023-03-26T07:19:57;97591.06;;;8.06;100.00
29903;BME280;30288;50.514;9.678;2023-03-26T07:22:03;97594.00;;;8.17;100.00
29903;BME280;30288;50.514;9.678;2023-03-26T07:24:28;97583.97;;;8.17;100.00
29903;BME280;30288;50.514;9.678;2023-03-26T07:26:52;97579.03;;;8.14;100.00
29903;BME280;30288;50.514;9.678;2023-03-26T07:29:14;97584.63;;;8.22;100.00
29903;BME280;30288;50.514;9.678;2023-03-26T07:31:49;97581.78;;;8.31;100.00
29903;BME280;30288;50.514;9.678;2023-03-26T07:34:30;97571.41;;;8.40;100.00
29903;BME280;30288;50.514;9.678;2023-03-26T07:37:18;97567.22;;;8.41;100.00
29903;BME280;30288;50.514;9.678;2023-03-26T07:39:54;97552.84;;;8.44;100.00
29903;BME280;30288;50.514;9.678;2023-03-26T07:42:40;97550.00;;;8.53;100.00
29903;BME280;30288;50.514;9.678;2023-03-26T07:45:24;97538.81;;;8.60;100.00
29903;BME280;30288;50.514;9.678;2023-03-26T07:47:56;97530.88;;;8.71;100.00
29903;BME280;30288;50.514;9.678;2023-03-26T07:50:31;97532.97;;;8.82;100.00
29903;BME280;30288;50.514;9.678;2023-03-26T07:52:44;97531.81;;;8.89;100.00
29903;BME280;30288;50.514;9.678;2023-03-26T07:55:06;97520.66;;;8.96;100.00
29903;BME280;30288;50.514;9.678;2023-03-26T07:57:39;97525.31;;;9.05;100.00
29903;BME280;30288;50.514;9.678;2023-03-26T08:00:06;97518.78;;;9.21;100.00
29903;BME280;30288;50.514;9.678;2023-03-26T08:02:40;97521.53;;;9.35;100.00
29903;BME280;30288;50.514;9.678;2023-03-26T08:05:26;97511.28;;;9.40;100.00
29903;BME280;30288;50.514;9.678;2023-03-26T08:07:47;97507.78;;;9.62;100.00
29903;BME280;30288;50.514;9.678;2023-03-26T08:10:13;97510.66;;;9.74;100.00
29903;BME280;30288;50.514;9.678;2023-03-26T08:12:42;97509.00;;;9.73;100.00
29903;BME280;30288;50.514;9.678;2023-03-26T08:14:58;97503.84;;;9.76;100.00
29903;BME280;30288;50.514;9.678;2023-03-26T08:17:10;97503.84;;;9.76;100.00
29903;BME280;30288;50.514;9.678;2023-03-26T08:19:41;97507.09;;;9.78;100.00
29903;BME280;30288;50.514;9.678;2023-03-26T08:21:54;97501.78;;;9.84;100.00
29903;BME280;30288;50.514;9.678;2023-03-26T08:24:11;97502.50;;;9.69;100.00
29903;BME280;30288;50.514;9.678;2023-03-26T08:26:28;97503.16;;;9.72;100.00
29903;BME280;30288;50.514;9.678;2023-03-26T08:29:00;97494.03;;;9.70;100.00
29903;BME280;30288;50.514;9.678;2023-03-26T08:31:09;97497.88;;;9.78;100.00
29903;BME280;30288;50.514;9.678;2023-03-26T08:33:19;97496.63;;;9.87;100.00
29903;BME280;30288;50.514;9.678;2023-03-26T08:35:26;97495.00;;;9.86;100.00
29903;BME280;30288;50.514;9.678;2023-03-26T08:37:35;97488.63;;;9.97;100.00
29903;BME280;30288;50.514;9.678;2023-03-26T08:39:40;97491.81;;;10.01;100.00
29903;BME280;30288;50.514;9.678;2023-03-26T08:42:36;97497.28;;;10.09;100.00
29903;BME280;30288;50.514;9.678;2023-03-26T08:50:49;97485.34;;;9.95;100.00
29903;BME280;30288;50.514;9.678;2023-03-26T08:53:36;97480.38;;;9.94;100.00
29903;BME280;30288;50.514;9.678;2023-03-26T08:55:52;97469.78;;;10.06;100.00
29903;BME280;30288;50.514;9.678;2023-03-26T08:58:39;97470.09;;;10.17;100.00
29903;BME280;30288;50.514;9.678;2023-03-26T09:04:04;97459.16;;;9.99;100.00
29903;BME280;30288;50.514;9.678;2023-03-26T09:12:37;97460.03;;;9.98;100.00
29903;BME280;30288;50.514;9.678;2023-03-26T09:15:17;97455.97;;;9.96;100.00
29903;BME280;30288;50.514;9.678;2023-03-26T09:26:25;97449.75;;;9.86;100.00
29903;BME280;30288;50.514;9.678;2023-03-26T09:34:29;97450.16;;;9.77;100.00
29903;BME280;30288;50.514;9.678;2023-03-26T09:36:52;97445.81;;;9.61;100.00
29903;BME280;30288;50.514;9.678;2023-03-26T09:39:08;97446.63;;;9.62;100.00
29903;BME280;30288;50.514;9.678;2023-03-26T09:41:35;97438.63;;;9.73;100.00
29903;BME280;30288;50.514;9.678;2023-03-26T09:46:29;97441.19;;;9.52;100.00
29903;BME280;30288;50.514;9.678;2023-03-26T09:49:00;97441.06;;;9.55;100.00
29903;BME280;30288;50.514;9.678;2023-03-26T09:51:31;97448.78;;;9.32;100.00
29903;BME280;30288;50.514;9.678;2023-03-26T09:53:58;97444.56;;;9.14;100.00
29903;BME280;30288;50.514;9.678;2023-03-26T09:56:24;97442.81;;;9.16;100.00
29903;BME280;30288;50.514;9.678;2023-03-26T09:59:21;97449.72;;;9.11;100.00
29903;BME280;30288;50.514;9.678;2023-03-26T10:01:40;97446.59;;;9.06;100.00
29903;BME280;30288;50.514;9.678;2023-03-26T10:03:58;97453.56;;;8.79;100.00
29903;BME280;30288;50.514;9.678;2023-03-26T10:06:34;97436.56;;;8.65;100.00
29903;BME280;30288;50.514;9.678;2023-03-26T10:09:00;97445.84;;;8.43;100.00
29903;BME280;30288;50.514;9.678;2023-03-26T10:11:17;97443.03;;;8.29;100.00
29903;BME280;30288;50.514;9.678;2023-03-26T10:13:34;97440.06;;;8.19;100.00
29903;BME280;30288;50.514;9.678;2023-03-26T10:16:05;97438.53;;;8.17;100.00
29903;BME280;30288;50.514;9.678;2023-03-26T10:18:21;97433.25;;;8.23;100.00
29903;BME280;30288;50.514;9.678;2023-03-26T10:20:48;97435.75;;;8.23;100.00
29903;BME280;30288;50.514;9.678;2023-03-26T10:23:13;97433.72;;;8.11;100.00
29903;BME280;30288;50.514;9.678;2023-03-26T10:25:47;97429.53;;;8.11;100.00
29903;BME280;30288;50.514;9.678;2023-03-26T10:28:17;97429.31;;;7.96;100.00
29903;BME280;30288;50.514;9.678;2023-03-26T10:30:40;97430.00;;;7.99;100.00
29903;BME280;30288;50.514;9.678;2023-03-26T10:32:58;97423.94;;;8.05;100.00
29903;BME280;30288;50.514;9.678;2023-03-26T10:35:21;97426.03;;;7.93;100.00
29903;BME280;30288;50.514;9.678;2023-03-26T10:37:43;97419.91;;;8.01;100.00
29903;BME280;30288;50.514;9.678;2023-03-26T10:40:14;97418.91;;;8.05;100.00
29903;BME280;30288;50.514;9.678;2023-03-26T10:45:32;97418.81;;;8.08;100.00
29903;BME280;30288;50.514;9.678;2023-03-26T10:48:11;97418.56;;;8.14;100.00
29903;BME280;30288;50.514;9.678;2023-03-26T10:50:31;97411.66;;;8.19;100.00
29903;BME280;30288;50.514;9.678;2023-03-26T10:52:45;97411.44;;;8.25;100.00
29903;BME280;30288;50.514;9.678;2023-03-26T10:54:55;97411.56;;;8.22;100.00
29903;BME280;30288;50.514;9.678;2023-03-26T10:57:11;97405.25;;;8.33;100.00
29903;BME280;30288;50.514;9.678;2023-03-26T10:59:25;97397.22;;;8.25;100.00
29903;BME280;30288;50.514;9.678;2023-03-26T11:01:42;97391.38;;;8.25;100.00
29903;BME280;30288;50.514;9.678;2023-03-26T11:03:52;97396.53;;;8.22;100.00
29903;BME280;30288;50.514;9.678;2023-03-26T11:06:05;97392.66;;;8.35;100.00
29903;BME280;30288;50.514;9.678;2023-03-26T11:08:20;97387.84;;;8.29;100.00
29903;BME280;30288;50.514;9.678;2023-03-26T11:10:45;97388.81;;;8.26;100.00
29903;BME280;30288;50.514;9.678;2023-03-26T11:13:01;97386.22;;;8.28;100.00
29903;BME280;30288;50.514;9.678;2023-03-26T11:15:22;97386.78;;;8.36;100.00
29903;BME280;30288;50.514;9.678;2023-03-26T11:17:42;97391.66;;;8.39;100.00
29903;BME280;30288;50.514;9.678;2023-03-26T11:19:56;97389.28;;;8.36;100.00
29903;BME280;30288;50.514;9.678;2023-03-26T11:22:16;97389.09;;;8.19;100.00
29903;BME280;30288;50.514;9.678;2023-03-26T11:24:39;97385.59;;;8.23;100.00
29903;BME280;30288;50.514;9.678;2023-03-26T11:26:53;97374.56;;;8.27;100.00
29903;BME280;30288;50.514;9.678;2023-03-26T11:29:41;97376.63;;;8.39;100.00
29903;BME280;30288;50.514;9.678;2023-03-26T11:32:01;97375.84;;;8.37;100.00
29903;BME280;30288;50.514;9.678;2023-03-26T11:34:15;97371.91;;;8.31;100.00
29903;BME280;30288;50.514;9.678;2023-03-26T11:36:29;97368.25;;;8.39;100.00
29903;BME280;30288;50.514;9.678;2023-03-26T11:38:40;97372.09;;;8.47;100.00
29903;BME280;30288;50.514;9.678;2023-03-26T11:40:52;97373.09;;;8.63;100.00
29903;BME280;30288;50.514;9.678;2023-03-26T11:43:23;97374.44;;;8.70;100.00
29903;BME280;30288;50.514;9.678;2023-03-26T11:45:33;97373.66;;;8.89;100.00
29903;BME280;30288;50.514;9.678;2023-03-26T11:47:47;97364.25;;;9.12;100.00
29903;BME280;30288;50.514;9.678;2023-03-26T11:49:58;97359.97;;;9.52;100.00
29903;BME280;30288;50.514;9.678;2023-03-26T11:52:05;97366.06;;;9.46;100.00
29903;BME280;30288;50.514;9.678;2023-03-26T11:54:11;97353.69;;;9.60;100.00
29903;BME280;30288;50.514;9.678;2023-03-26T11:56:26;97361.56;;;9.72;100.00
29903;BME280;30288;50.514;9.678;2023-03-26T11:58:37;97350.63;;;9.90;100.00
29903;BME280;30288;50.514;9.678;2023-03-26T12:00:46;97339.53;;;9.94;100.00
29903;BME280;30288;50.514;9.678;2023-03-26T12:02:57;97346.53;;;10.40;100.00
29903;BME280;30288;50.514;9.678;2023-03-26T12:05:18;97352.06;;;10.47;100.00
29903;BME280;30288;50.514;9.678;2023-03-26T12:07:31;97337.50;;;10.53;100.00
29903;BME280;30288;50.514;9.678;2023-03-26T12:09:36;97332.47;;;10.19;100.00
29903;BME280;30288;50.514;9.678;2023-03-26T12:11:42;97329.94;;;10.53;100.00
29903;BME280;30288;50.514;9.678;2023-03-26T12:13:52;97325.97;;;10.65;100.00
29903;BME280;30288;50.514;9.678;2023-03-26T12:16:09;97324.31;;;10.48;100.00
29903;BME280;30288;50.514;9.678;2023-03-26T12:18:24;97314.38;;;10.45;100.00
29903;BME280;30288;50.514;9.678;2023-03-26T12:20:35;97321.63;;;10.51;100.00
29903;BME280;30288;50.514;9.678;2023-03-26T12:22:40;97310.03;;;10.65;100.00
29903;BME280;30288;50.514;9.678;2023-03-26T12:25:00;97312.88;;;11.07;100.00
29903;BME280;30288;50.514;9.678;2023-03-26T12:27:21;97298.13;;;11.78;100.00
29903;BME280;30288;50.514;9.678;2023-03-26T12:29:29;97293.66;;;11.67;100.00
29903;BME280;30288;50.514;9.678;2023-03-26T12:31:51;97286.44;;;11.46;100.00
29903;BME280;30288;50.514;9.678;2023-03-26T12:34:12;97284.19;;;11.25;100.00
29903;BME280;30288;50.514;9.678;2023-03-26T12:36:25;97298.72;;;10.89;100.00